createdAt,value
2023-12-03T00:01:07.610Z,-4.07
2023-12-03T00:03:34.648Z,-4.09
2023-12-03T00:06:03.963Z,-4.18
2023-12-03T00:08:41.844Z,-4.15
2023-12-03T00:11:14.762Z,-4.22
2023-12-03T00:13:41.576Z,-4.21
2023-12-03T00:16:09.703Z,-4.24
2023-12-03T00:18:36.562Z,-4.29
2023-12-03T00:21:05.111Z,-4.35
2023-12-03T00:23:31.938Z,-4.41
2023-12-03T00:25:58.673Z,-4.42
2023-12-03T00:28:25.505Z,-4.45
2023-12-03T00:30:52.663Z,-4.47
2023-12-03T00:33:19.499Z,-4.47
2023-12-03T00:47:43.713Z,-4.48
2023-12-03T00:50:10.897Z,-4.49
2023-12-03T00:52:37.778Z,-4.61
2023-12-03T00:55:05.256Z,-4.55
2023-12-03T00:57:32.091Z,-4.60
2023-12-03T00:59:58.998Z,-4.56
2023-12-03T01:02:25.847Z,-4.62
2023-12-03T01:04:54.388Z,-4.59
2023-12-03T01:07:21.299Z,-4.59
2023-12-03T01:09:48.121Z,-4.60
2023-12-03T01:12:14.977Z,-4.70
2023-12-03T01:14:41.820Z,-4.81
2023-12-03T01:17:08.606Z,-4.85
2023-12-03T01:19:35.463Z,-4.86
2023-12-03T01:22:03.957Z,-4.90
2023-12-03T01:24:30.802Z,-4.93
2023-12-03T01:26:57.883Z,-4.96
2023-12-03T01:29:24.781Z,-5.04
2023-12-03T01:31:51.693Z,-5.09
2023-12-03T01:34:18.510Z,-5.11
2023-12-03T01:36:45.434Z,-5.18
2023-12-03T01:39:13.792Z,-5.23
2023-12-03T01:41:40.658Z,-5.32
2023-12-03T01:44:07.544Z,-5.45
2023-12-03T01:46:34.984Z,-5.37
2023-12-03T01:49:02.038Z,-5.36
2023-12-03T01:51:29.279Z,-5.37
2023-12-03T01:53:56.189Z,-5.38
2023-12-03T01:56:24.478Z,-5.39
2023-12-03T01:58:51.395Z,-5.38
2023-12-03T02:01:18.417Z,-5.31
2023-12-03T02:03:45.195Z,-5.35
2023-12-03T02:06:12.544Z,-5.40
2023-12-03T02:08:39.456Z,-5.46
2023-12-03T02:11:08.259Z,-5.53
2023-12-03T02:13:38.392Z,-5.58
2023-12-03T02:16:05.874Z,-5.60
2023-12-03T02:18:34.009Z,-5.71
2023-12-03T02:21:00.936Z,-5.77
2023-12-03T02:23:30.676Z,-5.85
2023-12-03T02:25:57.588Z,-5.93
2023-12-03T02:28:24.576Z,-5.99
2023-12-03T02:30:51.656Z,-6.09
2023-12-03T02:33:18.567Z,-6.14
2023-12-03T02:35:45.373Z,-6.15
2023-12-03T02:38:12.120Z,-6.21
2023-12-03T02:40:40.837Z,-6.16
2023-12-03T02:43:07.732Z,-6.14
2023-12-03T02:45:34.682Z,-6.11
2023-12-03T02:48:01.855Z,-6.13
2023-12-03T02:50:28.771Z,-6.13
2023-12-03T02:52:55.567Z,-6.13
2023-12-03T02:55:22.588Z,-6.08
2023-12-03T02:57:50.787Z,-6.12
2023-12-03T03:00:18.365Z,-6.09
2023-12-03T03:02:45.193Z,-6.09
2023-12-03T03:05:12.434Z,-6.11
2023-12-03T03:07:39.326Z,-5.97
2023-12-03T03:10:07.117Z,-5.91
2023-12-03T03:12:33.993Z,-5.93
2023-12-03T03:15:02.174Z,-5.99
2023-12-03T03:17:29.224Z,-6.12
2023-12-03T03:19:56.498Z,-6.15
2023-12-03T03:22:23.403Z,-6.27
2023-12-03T03:24:52.311Z,-6.37
2023-12-03T03:27:19.205Z,-6.39
2023-12-03T03:29:45.992Z,-6.43
2023-12-03T03:32:14.385Z,-6.52
2023-12-03T03:34:41.314Z,-6.62
2023-12-03T03:37:08.199Z,-6.66
2023-12-03T03:39:35.070Z,-6.76
2023-12-03T03:42:01.863Z,-6.86
2023-12-03T03:44:28.689Z,-6.92
2023-12-03T03:46:55.582Z,-6.99
2023-12-03T03:49:23.790Z,-7.08
2023-12-03T03:51:51.474Z,-7.10
2023-12-03T03:54:18.262Z,-7.17
2023-12-03T03:56:46.516Z,-7.24
2023-12-03T03:59:13.261Z,-7.22
2023-12-03T04:01:42.982Z,-7.16
2023-12-03T04:04:09.860Z,-7.23
2023-12-03T04:06:39.737Z,-7.24
2023-12-03T04:09:06.703Z,-7.21
2023-12-03T04:11:33.526Z,-7.20
2023-12-03T04:14:00.350Z,-7.23
2023-12-03T04:16:27.122Z,-7.21
2023-12-03T04:18:53.929Z,-7.24
2023-12-03T04:21:20.807Z,-7.26
2023-12-03T04:23:48.932Z,-7.28
2023-12-03T04:26:15.779Z,-7.29
2023-12-03T04:28:42.761Z,-7.32
2023-12-03T04:31:19.242Z,-7.41
2023-12-03T04:33:46.450Z,-7.38
2023-12-03T04:36:14.439Z,-7.48
2023-12-03T04:38:41.259Z,-7.51
2023-12-03T04:41:09.714Z,-7.56
2023-12-03T04:43:36.520Z,-7.63
2023-12-03T04:46:06.787Z,-7.65
2023-12-03T04:48:33.996Z,-7.75
2023-12-03T04:51:02.063Z,-7.88
2023-12-03T04:53:28.870Z,-8.01
2023-12-03T04:55:55.663Z,-7.99
2023-12-03T04:58:24.119Z,-7.91
2023-12-03T05:00:50.882Z,-7.87
2023-12-03T05:03:17.827Z,-7.82
2023-12-03T05:05:44.713Z,-7.77
2023-12-03T05:08:11.571Z,-7.75
2023-12-03T05:10:38.392Z,-7.73
2023-12-03T05:13:05.241Z,-7.76
2023-12-03T05:15:33.519Z,-7.84
2023-12-03T05:18:00.393Z,-7.88
2023-12-03T05:20:27.285Z,-7.91
2023-12-03T05:22:54.058Z,-7.91
2023-12-03T05:25:20.993Z,-7.96
2023-12-03T05:27:48.024Z,-8.12
2023-12-03T05:30:15.990Z,-8.25
2023-12-03T05:32:44.318Z,-8.09
2023-12-03T05:35:11.454Z,-7.89
2023-12-03T05:37:39.458Z,-7.86
2023-12-03T05:40:08.877Z,-7.80
2023-12-03T05:42:35.804Z,-7.81
2023-12-03T05:45:02.790Z,-7.84
2023-12-03T05:47:29.868Z,-7.92
2023-12-03T05:49:58.657Z,-8.01
2023-12-03T05:52:25.732Z,-8.01
2023-12-03T05:54:52.615Z,-8.04
2023-12-03T05:57:19.501Z,-8.07
2023-12-03T05:59:46.367Z,-8.07
2023-12-03T06:02:13.204Z,-8.07
2023-12-03T06:04:41.451Z,-8.04
2023-12-03T06:07:09.960Z,-7.98
2023-12-03T06:09:38.126Z,-7.94
2023-12-03T06:12:05.892Z,-7.89
2023-12-03T06:14:32.740Z,-7.98
2023-12-03T06:16:59.489Z,-8.02
2023-12-03T06:19:26.355Z,-8.05
2023-12-03T06:21:53.312Z,-7.99
2023-12-03T06:24:21.646Z,-7.98
2023-12-03T06:26:48.803Z,-7.97
2023-12-03T06:29:15.637Z,-8.03
2023-12-03T06:31:42.432Z,-8.02
2023-12-03T06:34:09.238Z,-8.04
2023-12-03T06:36:36.150Z,-8.06
2023-12-03T06:39:03.109Z,-8.11
2023-12-03T06:41:31.326Z,-8.12
2023-12-03T06:43:58.080Z,-8.17
2023-12-03T06:46:24.971Z,-8.16
2023-12-03T06:48:51.830Z,-8.14
2023-12-03T06:51:18.739Z,-8.08
2023-12-03T06:53:45.568Z,-8.04
2023-12-03T06:56:12.531Z,-8.03
2023-12-03T06:58:40.702Z,-8.16
2023-12-03T07:01:08.118Z,-8.10
2023-12-03T07:03:34.882Z,-8.22
2023-12-03T07:06:01.765Z,-8.12
2023-12-03T07:08:28.696Z,-8.05
2023-12-03T07:10:56.281Z,-7.97
2023-12-03T07:13:23.020Z,-7.92
2023-12-03T07:15:51.240Z,-7.92
2023-12-03T07:18:18.034Z,-7.93
2023-12-03T07:20:45.298Z,-7.91
2023-12-03T07:23:12.108Z,-7.94
2023-12-03T07:25:38.866Z,-7.86
2023-12-03T07:28:05.717Z,-7.94
2023-12-03T07:30:32.604Z,-7.92
2023-12-03T07:33:01.487Z,-7.84
2023-12-03T07:35:28.399Z,-7.81
2023-12-03T07:37:55.160Z,-7.81
2023-12-03T07:40:21.932Z,-7.71
2023-12-03T07:42:49.206Z,-7.61
2023-12-03T07:45:16.061Z,-7.47
2023-12-03T07:47:43.210Z,-7.40
2023-12-03T07:50:11.520Z,-7.25
2023-12-03T07:52:38.367Z,-7.05
2023-12-03T07:55:06.143Z,-6.91
2023-12-03T07:57:33.015Z,-6.83
2023-12-03T08:00:00.020Z,-6.84
2023-12-03T08:02:26.776Z,-6.75
2023-12-03T08:04:53.694Z,-6.69
2023-12-03T08:07:21.991Z,-6.61
2023-12-03T08:09:48.870Z,-6.51
2023-12-03T08:12:15.736Z,-6.41
2023-12-03T08:14:42.529Z,-6.28
2023-12-03T08:17:09.289Z,-6.13
2023-12-03T08:19:36.104Z,-5.85
2023-12-03T08:22:03.172Z,-5.61
2023-12-03T08:24:31.405Z,-5.39
2023-12-03T08:26:58.218Z,-5.25
2023-12-03T08:29:24.945Z,-5.02
2023-12-03T08:31:51.769Z,-4.79
2023-12-03T08:34:18.629Z,-4.52
2023-12-03T08:36:45.545Z,-4.31
2023-12-03T08:39:12.425Z,-4.13
2023-12-03T08:41:40.544Z,-3.90
2023-12-03T08:44:07.302Z,-3.64
2023-12-03T08:46:34.188Z,-3.90
2023-12-03T08:49:01.116Z,-3.86
2023-12-03T08:51:28.540Z,-3.61
2023-12-03T08:53:55.401Z,-3.27
2023-12-03T08:56:22.257Z,-3.04
2023-12-03T08:58:50.655Z,-2.88
2023-12-03T09:01:18.431Z,-2.76
2023-12-03T09:03:45.408Z,-2.66
2023-12-03T09:06:14.279Z,-2.66
2023-12-03T09:08:43.393Z,-2.58
2023-12-03T09:11:12.877Z,-2.54
2023-12-03T09:13:39.739Z,-2.54
2023-12-03T09:16:09.245Z,-2.58
2023-12-03T09:18:36.134Z,-2.85
2023-12-03T09:21:03.088Z,-2.73
2023-12-03T09:23:29.923Z,-2.61
2023-12-03T09:25:56.668Z,-2.51
2023-12-03T09:28:23.497Z,-2.43
2023-12-03T09:30:50.297Z,-2.66
2023-12-03T09:33:18.597Z,-2.68
2023-12-03T09:35:45.440Z,-2.80
2023-12-03T09:38:12.254Z,-2.97
2023-12-03T09:40:39.082Z,-3.53
2023-12-03T09:43:06.606Z,-3.36
2023-12-03T09:45:36.814Z,-3.45
2023-12-03T09:48:04.429Z,-3.27
2023-12-03T09:50:35.758Z,-3.13
2023-12-03T09:53:05.949Z,-3.19
2023-12-03T09:55:34.091Z,-2.93
2023-12-03T09:58:02.281Z,-3.11
2023-12-03T10:00:30.820Z,-2.69
2023-12-03T10:02:58.087Z,-2.27
2023-12-03T10:05:25.329Z,-2.03
2023-12-03T10:07:54.930Z,-1.86
2023-12-03T10:10:25.678Z,-1.70
2023-12-03T10:12:55.902Z,-1.43
2023-12-03T10:15:23.127Z,-0.80
2023-12-03T10:17:51.206Z,-0.25
2023-12-03T10:20:23.459Z,0.20
2023-12-03T10:22:51.895Z,0.45
2023-12-03T10:25:34.298Z,0.44
2023-12-03T10:28:03.403Z,0.64
2023-12-03T10:30:30.322Z,0.81
2023-12-03T10:32:57.211Z,0.98
2023-12-03T10:35:25.550Z,0.92
2023-12-03T10:37:53.065Z,0.80
2023-12-03T10:40:20.611Z,0.85
2023-12-03T10:42:49.982Z,0.74
2023-12-03T10:45:17.744Z,0.92
2023-12-03T10:47:45.154Z,1.08
2023-12-03T10:50:13.382Z,1.07
2023-12-03T10:52:41.380Z,0.92
2023-12-03T10:55:09.783Z,1.00
2023-12-03T10:57:55.298Z,1.13
2023-12-03T11:00:31.725Z,1.31
2023-12-03T11:03:09.478Z,1.21
2023-12-03T11:05:43.347Z,1.35
2023-12-03T11:08:11.747Z,1.45
2023-12-03T11:10:38.858Z,1.35
2023-12-03T11:13:06.163Z,1.27
2023-12-03T11:15:34.464Z,1.49
2023-12-03T11:18:02.273Z,1.51
2023-12-03T11:20:33.156Z,1.61
2023-12-03T11:23:21.141Z,1.71
2023-12-03T11:25:55.307Z,1.78
2023-12-03T11:28:22.087Z,1.93
2023-12-03T11:30:50.331Z,1.96
2023-12-03T11:33:22.151Z,2.04
2023-12-03T11:35:51.165Z,2.12
2023-12-03T11:38:30.040Z,2.08
2023-12-03T11:40:57.065Z,2.03
2023-12-03T11:43:24.406Z,2.08
2023-12-03T11:45:53.061Z,2.07
2023-12-03T11:48:20.752Z,1.96
2023-12-03T11:50:48.994Z,1.95
2023-12-03T11:53:17.761Z,2.14
2023-12-03T11:55:45.933Z,1.93
2023-12-03T11:58:12.980Z,1.95
2023-12-03T12:00:40.802Z,2.05
2023-12-03T12:03:09.658Z,1.92
2023-12-03T12:05:43.650Z,1.90
2023-12-03T12:08:10.634Z,1.90
2023-12-03T12:10:37.569Z,1.76
2023-12-03T12:13:05.369Z,1.81
2023-12-03T12:15:32.383Z,1.77
2023-12-03T12:17:59.713Z,1.75
2023-12-03T12:20:29.538Z,1.84
2023-12-03T12:22:57.833Z,1.80
2023-12-03T12:25:26.657Z,1.81
2023-12-03T12:27:54.481Z,1.91
2023-12-03T12:30:33.794Z,1.94
2023-12-03T12:33:04.021Z,1.85
2023-12-03T12:35:32.823Z,1.90
2023-12-03T12:38:00.785Z,1.86
2023-12-03T12:40:28.571Z,1.86
2023-12-03T12:43:06.940Z,1.94
2023-12-03T12:45:34.212Z,1.93
2023-12-03T12:48:01.302Z,1.89
2023-12-03T12:50:36.735Z,1.86
2023-12-03T12:53:03.948Z,1.79
2023-12-03T12:55:32.218Z,1.84
2023-12-03T12:57:59.750Z,1.83
2023-12-03T13:00:27.167Z,1.84
2023-12-03T13:02:54.663Z,1.80
2023-12-03T13:05:21.667Z,1.74
2023-12-03T13:07:52.336Z,1.65
2023-12-03T13:10:19.259Z,1.60
2023-12-03T13:12:46.087Z,1.62
2023-12-03T13:15:13.090Z,1.61
2023-12-03T13:17:47.638Z,1.56
2023-12-03T13:20:14.506Z,1.49
2023-12-03T13:22:43.648Z,1.36
2023-12-03T13:25:11.981Z,1.32
2023-12-03T13:27:39.077Z,1.31
2023-12-03T13:30:07.243Z,1.28
2023-12-03T13:32:35.146Z,1.18
2023-12-03T13:35:04.177Z,1.12
2023-12-03T13:37:33.008Z,1.07
2023-12-03T13:39:59.905Z,1.01
2023-12-03T13:42:28.180Z,0.96
2023-12-03T13:44:54.963Z,0.91
2023-12-03T13:47:21.788Z,0.88
2023-12-03T13:49:48.538Z,0.86
2023-12-03T13:52:15.402Z,0.70
2023-12-03T13:54:42.243Z,0.60
2023-12-03T13:57:09.001Z,0.56
2023-12-03T13:59:37.173Z,0.33
2023-12-03T14:02:04.357Z,0.17
2023-12-03T14:04:31.340Z,0.11
2023-12-03T14:06:58.546Z,0.07
2023-12-03T14:09:25.437Z,0.04
2023-12-03T14:11:52.249Z,-0.04
2023-12-03T14:14:19.011Z,-0.16
2023-12-03T14:16:54.658Z,-0.26
2023-12-03T14:19:21.643Z,-0.35
2023-12-03T14:21:48.981Z,-0.46
2023-12-03T14:24:15.875Z,-0.58
2023-12-03T14:26:42.750Z,-0.66
2023-12-03T14:29:10.025Z,-0.75
2023-12-03T14:31:37.628Z,-0.83
2023-12-03T14:34:06.005Z,-0.95
2023-12-03T14:36:33.060Z,-1.14
2023-12-03T14:39:00.108Z,-1.31
2023-12-03T14:41:27.171Z,-1.42
2023-12-03T14:43:54.016Z,-1.47
2023-12-03T14:46:21.945Z,-1.56
2023-12-03T14:48:48.987Z,-1.71
2023-12-03T14:51:19.055Z,-1.91
2023-12-03T14:53:45.964Z,-2.17
2023-12-03T14:56:20.350Z,-2.42
2023-12-03T14:58:47.273Z,-2.62
2023-12-03T15:01:14.146Z,-2.78
2023-12-03T15:03:41.123Z,-2.96
2023-12-03T15:06:08.958Z,-3.08
2023-12-03T15:08:37.128Z,-3.36
2023-12-03T15:11:05.377Z,-3.38
2023-12-03T15:13:32.588Z,-3.47
2023-12-03T15:15:59.623Z,-3.68
2023-12-03T15:18:26.586Z,-3.77
2023-12-03T15:20:54.263Z,-3.98
2023-12-03T15:23:21.644Z,-4.06
2023-12-03T15:25:50.015Z,-4.02
2023-12-03T15:28:16.968Z,-4.14
2023-12-03T15:30:45.441Z,-4.29
2023-12-03T15:33:12.432Z,-4.37
2023-12-03T15:35:39.323Z,-4.48
2023-12-03T15:38:06.184Z,-4.66
2023-12-03T15:40:33.006Z,-4.80
2023-12-03T15:43:01.254Z,-4.91
2023-12-03T15:45:28.072Z,-5.08
2023-12-03T15:47:54.973Z,-5.24
2023-12-03T15:50:22.861Z,-5.35
2023-12-03T15:52:49.982Z,-5.42
2023-12-03T15:55:22.220Z,-5.57
2023-12-03T15:57:49.940Z,-5.72
2023-12-03T16:00:19.906Z,-5.67
2023-12-03T16:02:47.962Z,-5.81
2023-12-03T16:05:14.896Z,-5.83
2023-12-03T16:07:42.033Z,-5.73
2023-12-03T16:10:09.805Z,-5.86
2023-12-03T16:12:36.633Z,-5.92
2023-12-03T16:15:03.916Z,-6.00
2023-12-03T16:17:35.245Z,-6.10
2023-12-03T16:20:02.779Z,-5.94
2023-12-03T16:22:29.553Z,-5.92
2023-12-03T16:24:56.813Z,-6.02
2023-12-03T16:27:23.682Z,-6.03
2023-12-03T16:29:51.515Z,-5.95
2023-12-03T16:32:18.350Z,-6.13
2023-12-03T16:34:46.652Z,-6.20
2023-12-03T16:37:13.548Z,-6.09
2023-12-03T16:39:40.476Z,-6.16
2023-12-03T16:42:07.711Z,-6.21
2023-12-03T16:44:34.509Z,-6.27
2023-12-03T16:47:01.508Z,-6.40
2023-12-03T16:49:28.323Z,-6.30
2023-12-03T16:51:56.511Z,-6.22
2023-12-03T16:54:23.317Z,-6.30
2023-12-03T16:56:50.112Z,-6.26
2023-12-03T16:59:17.534Z,-6.26
2023-12-03T17:01:44.428Z,-6.31
2023-12-03T17:04:12.114Z,-6.42
2023-12-03T17:06:38.899Z,-6.47
2023-12-03T17:09:07.156Z,-6.60
2023-12-03T17:11:34.100Z,-6.61
2023-12-03T17:14:01.104Z,-6.71
2023-12-03T17:16:27.924Z,-6.62
2023-12-03T17:18:54.845Z,-6.68
2023-12-03T17:21:21.730Z,-6.86
2023-12-03T17:23:48.563Z,-6.86
2023-12-03T17:26:16.709Z,-6.80
2023-12-03T17:28:43.495Z,-6.89
2023-12-03T17:31:10.473Z,-6.95
2023-12-03T17:33:37.327Z,-7.00
2023-12-03T17:36:04.825Z,-7.02
2023-12-03T17:38:31.586Z,-7.06
2023-12-03T17:40:58.463Z,-7.03
2023-12-03T17:43:26.656Z,-7.06
2023-12-03T17:45:55.120Z,-7.04
2023-12-03T17:48:21.978Z,-7.05
2023-12-03T17:50:49.025Z,-7.05
2023-12-03T17:53:15.828Z,-7.04
2023-12-03T17:55:42.641Z,-7.07
2023-12-03T17:58:09.458Z,-7.10
2023-12-03T18:00:37.773Z,-7.13
2023-12-03T18:03:04.647Z,-7.16
2023-12-03T18:05:31.497Z,-7.18
2023-12-03T18:07:58.287Z,-7.16
2023-12-03T18:10:25.205Z,-7.16
2023-12-03T18:12:52.307Z,-7.23
2023-12-03T18:15:19.238Z,-7.19
2023-12-03T18:17:47.454Z,-7.22
2023-12-03T18:20:14.269Z,-7.27
2023-12-03T18:22:41.085Z,-7.30
2023-12-03T18:25:08.844Z,-7.34
2023-12-03T18:27:35.872Z,-7.40
2023-12-03T18:30:02.991Z,-7.43
2023-12-03T18:32:33.727Z,-7.47
2023-12-03T18:35:02.435Z,-7.50
2023-12-03T18:37:30.171Z,-7.48
2023-12-03T18:39:57.785Z,-7.49
2023-12-03T18:42:25.319Z,-7.49
2023-12-03T18:44:55.862Z,-7.53
2023-12-03T18:47:23.297Z,-7.56
2023-12-03T18:49:50.714Z,-7.62
2023-12-03T18:52:19.187Z,-7.65
2023-12-03T18:54:46.259Z,-7.68
2023-12-03T18:57:15.795Z,-7.70
2023-12-03T18:59:44.392Z,-7.68
2023-12-03T19:02:11.518Z,-7.64
2023-12-03T19:04:38.783Z,-7.66
2023-12-03T19:07:08.375Z,-7.74
2023-12-03T19:09:41.799Z,-7.73
2023-12-03T19:12:08.977Z,-7.73
2023-12-03T19:14:35.854Z,-7.75
2023-12-03T19:17:03.006Z,-7.77
2023-12-03T19:19:30.184Z,-7.74
2023-12-03T19:21:57.425Z,-7.75
2023-12-03T19:24:24.480Z,-7.74
2023-12-03T19:26:53.530Z,-7.72
2023-12-03T19:29:20.623Z,-7.74
2023-12-03T19:31:47.461Z,-7.77
2023-12-03T19:34:14.700Z,-7.86
2023-12-03T19:36:41.683Z,-7.89
2023-12-03T19:39:08.683Z,-7.98
2023-12-03T19:41:35.699Z,-7.98
2023-12-03T19:44:04.637Z,-7.99
2023-12-03T19:46:31.574Z,-8.06
2023-12-03T19:48:59.338Z,-7.98
2023-12-03T19:51:26.507Z,-7.94
2023-12-03T19:53:54.119Z,-8.05
2023-12-03T19:56:21.774Z,-8.05
2023-12-03T19:58:49.019Z,-7.99
2023-12-03T20:01:17.314Z,-8.00
2023-12-03T20:03:45.595Z,-8.20
2023-12-03T20:06:15.855Z,-8.30
2023-12-03T20:08:42.783Z,-8.34
2023-12-03T20:11:10.085Z,-8.30
2023-12-03T20:13:37.163Z,-8.17
2023-12-03T20:16:05.093Z,-8.48
2023-12-03T20:18:33.663Z,-8.18
2023-12-03T20:21:02.752Z,-8.08
2023-12-03T20:23:30.001Z,-8.09
2023-12-03T20:25:58.285Z,-8.14
2023-12-03T20:28:25.471Z,-8.34
2023-12-03T20:30:52.630Z,-8.37
2023-12-03T20:33:19.715Z,-8.28
2023-12-03T20:35:48.321Z,-8.25
2023-12-03T20:38:15.303Z,-8.28
2023-12-03T20:40:42.473Z,-8.31
2023-12-03T20:43:09.948Z,-8.40
2023-12-03T20:45:37.645Z,-8.40
2023-12-03T20:48:05.400Z,-8.43
2023-12-03T20:50:32.773Z,-8.38
2023-12-03T20:53:02.616Z,-8.37
2023-12-03T20:55:30.170Z,-8.40
2023-12-03T20:58:00.377Z,-8.41
2023-12-03T21:00:27.488Z,-8.47
2023-12-03T21:02:54.870Z,-8.52
2023-12-03T21:05:22.362Z,-8.52
2023-12-03T21:07:49.950Z,-8.50
2023-12-03T21:10:20.701Z,-8.44
2023-12-03T21:12:47.677Z,-8.33
2023-12-03T21:15:14.843Z,-8.28
2023-12-03T21:17:41.805Z,-8.25
2023-12-03T21:20:09.385Z,-8.31
2023-12-03T21:22:36.412Z,-8.36
2023-12-03T21:25:03.427Z,-8.56
2023-12-03T21:27:32.458Z,-8.29
2023-12-03T21:29:59.502Z,-8.29
2023-12-03T21:32:28.835Z,-8.22
2023-12-03T21:34:55.715Z,-8.25
2023-12-03T21:37:22.801Z,-8.26
2023-12-03T21:39:50.255Z,-8.39
2023-12-03T21:42:17.849Z,-8.41
2023-12-03T21:44:46.088Z,-8.37
2023-12-03T21:47:13.149Z,-8.36
2023-12-03T21:49:40.073Z,-8.37
2023-12-03T21:52:07.442Z,-8.49
2023-12-03T21:54:34.380Z,-8.46
2023-12-03T21:57:01.486Z,-8.45
2023-12-03T21:59:28.300Z,-8.42
2023-12-03T22:01:59.124Z,-8.47
2023-12-03T22:04:26.087Z,-8.67
2023-12-03T22:06:53.048Z,-8.58
2023-12-03T22:09:20.244Z,-8.55
2023-12-03T22:11:47.208Z,-8.54
2023-12-03T22:14:14.196Z,-8.57
2023-12-03T22:16:41.145Z,-8.55
2023-12-03T22:19:09.456Z,-8.54
2023-12-03T22:21:36.469Z,-8.51
2023-12-03T22:24:03.590Z,-8.47
2023-12-03T22:26:30.620Z,-8.50
2023-12-03T22:28:57.492Z,-8.54
2023-12-03T22:31:24.522Z,-8.54
2023-12-03T22:33:52.543Z,-8.58
2023-12-03T22:36:20.931Z,-8.61
2023-12-03T22:38:48.078Z,-8.65
2023-12-03T22:41:15.156Z,-8.77
2023-12-03T22:43:42.069Z,-8.73
2023-12-03T22:46:09.048Z,-8.74
2023-12-03T22:48:35.946Z,-8.78
2023-12-03T22:51:05.506Z,-8.73
2023-12-03T22:53:33.712Z,-8.77
2023-12-03T22:56:00.884Z,-8.76
2023-12-03T22:58:27.749Z,-8.77
2023-12-03T23:00:54.640Z,-8.78
2023-12-03T23:03:21.450Z,-8.79
2023-12-03T23:05:48.316Z,-8.80
2023-12-03T23:08:16.146Z,-8.79
2023-12-03T23:10:44.346Z,-8.74
2023-12-03T23:13:11.423Z,-8.75
2023-12-03T23:15:38.403Z,-8.75
2023-12-03T23:18:25.455Z,-8.74
2023-12-03T23:20:52.477Z,-8.70
2023-12-03T23:23:19.307Z,-8.61
2023-12-03T23:25:47.546Z,-8.68
2023-12-03T23:28:14.407Z,-8.63
2023-12-03T23:30:41.271Z,-8.67
2023-12-03T23:33:08.332Z,-8.67
2023-12-03T23:35:35.250Z,-8.69
2023-12-03T23:38:02.128Z,-8.71
2023-12-03T23:40:28.934Z,-8.80
2023-12-03T23:42:57.122Z,-8.71
2023-12-03T23:45:23.943Z,-8.71
2023-12-03T23:47:50.816Z,-8.75
2023-12-03T23:50:17.758Z,-8.85
2023-12-03T23:52:44.536Z,-8.83
2023-12-03T23:55:11.427Z,-8.88
2023-12-03T23:57:38.297Z,-8.81
